createdAt,value
2017-09-03T00:00:43.126Z,12.30
2017-09-03T00:03:10.737Z,12.30
2017-09-03T00:05:38.344Z,12.30
2017-09-03T00:08:05.978Z,12.30
2017-09-03T00:10:33.568Z,12.20
2017-09-03T00:13:01.195Z,12.20
2017-09-03T00:15:28.823Z,12.30
2017-09-03T00:17:56.437Z,12.20
2017-09-03T00:20:24.059Z,12.20
2017-09-03T00:22:51.679Z,12.10
2017-09-03T00:25:19.275Z,12.10
2017-09-03T00:27:46.896Z,12.10
2017-09-03T00:30:14.514Z,12.00
2017-09-03T00:32:42.143Z,12.10
2017-09-03T00:35:09.758Z,12.10
2017-09-03T00:37:37.377Z,12.10
2017-09-03T00:40:05.003Z,12.10
2017-09-03T00:42:32.600Z,12.20
2017-09-03T00:45:00.980Z,12.10
2017-09-03T00:47:28.586Z,12.10
2017-09-03T00:49:56.986Z,12.10
2017-09-03T00:52:24.588Z,12.10
2017-09-03T00:54:52.217Z,12.20
2017-09-03T00:57:20.584Z,12.20
2017-09-03T00:59:48.196Z,12.20
2017-09-03T01:02:15.807Z,12.20
2017-09-03T01:04:43.428Z,12.20
2017-09-03T01:07:11.027Z,12.30
2017-09-03T01:09:38.662Z,12.30
2017-09-03T01:12:06.252Z,12.20
2017-09-03T01:14:33.885Z,12.10
2017-09-03T01:17:01.469Z,12.10
2017-09-03T01:19:29.077Z,12.10
2017-09-03T01:21:56.690Z,11.90
2017-09-03T01:24:24.280Z,11.90
2017-09-03T01:26:51.930Z,11.90
2017-09-03T01:29:19.539Z,11.90
2017-09-03T01:31:47.170Z,11.90
2017-09-03T01:34:14.782Z,11.80
2017-09-03T01:36:42.416Z,11.70
2017-09-03T01:39:10.003Z,11.60
2017-09-03T01:41:38.397Z,11.80
2017-09-03T01:44:05.987Z,11.80
2017-09-03T01:46:34.052Z,11.80
2017-09-03T01:49:01.643Z,11.80
2017-09-03T01:51:29.278Z,11.80
2017-09-03T01:53:56.882Z,11.70
2017-09-03T01:56:25.283Z,11.70
2017-09-03T01:58:53.636Z,11.60
2017-09-03T02:01:21.255Z,11.60
2017-09-03T02:03:48.847Z,11.60
2017-09-03T02:06:16.444Z,11.70
2017-09-03T02:08:44.069Z,11.70
2017-09-03T02:11:12.333Z,11.70
2017-09-03T02:13:39.969Z,11.90
2017-09-03T02:16:07.575Z,11.70
2017-09-03T02:18:36.271Z,11.70
2017-09-03T02:21:03.860Z,11.70
2017-09-03T02:23:31.497Z,11.60
2017-09-03T02:25:59.113Z,11.50
2017-09-03T02:28:26.726Z,11.20
2017-09-03T02:30:54.334Z,11.20
2017-09-03T02:33:21.948Z,11.20
2017-09-03T02:35:50.304Z,11.30
2017-09-03T02:38:17.920Z,11.30
2017-09-03T02:40:45.524Z,11.20
2017-09-03T02:43:13.140Z,11.20
2017-09-03T02:45:40.735Z,11.20
2017-09-03T02:48:08.364Z,11.20
2017-09-03T02:50:35.974Z,11.30
2017-09-03T02:53:03.600Z,11.30
2017-09-03T02:55:31.301Z,11.30
2017-09-03T02:57:59.665Z,11.30
2017-09-03T03:00:27.306Z,11.30
2017-09-03T03:02:54.888Z,11.30
2017-09-03T03:05:22.527Z,11.30
2017-09-03T03:07:50.123Z,11.30
2017-09-03T03:10:17.742Z,11.20
2017-09-03T03:12:45.345Z,11.20
2017-09-03T03:15:12.978Z,11.20
2017-09-03T03:17:40.606Z,11.30
2017-09-03T03:20:08.231Z,11.40
2017-09-03T03:22:35.874Z,11.50
2017-09-03T03:25:03.502Z,11.40
2017-09-03T03:27:31.104Z,11.30
2017-09-03T03:29:58.738Z,11.30
2017-09-03T03:32:26.334Z,11.30
2017-09-03T03:34:53.949Z,11.20
2017-09-03T03:37:21.565Z,11.10
2017-09-03T03:39:49.939Z,11.20
2017-09-03T03:42:17.545Z,11.20
2017-09-03T03:44:45.181Z,11.30
2017-09-03T03:47:12.780Z,11.30
2017-09-03T03:49:40.409Z,11.30
2017-09-03T03:52:08.026Z,11.30
2017-09-03T03:54:35.637Z,11.20
2017-09-03T03:57:03.261Z,11.40
2017-09-03T03:59:30.891Z,11.40
2017-09-03T04:01:58.504Z,11.40
2017-09-03T04:04:26.107Z,11.40
2017-09-03T04:06:53.714Z,11.50
2017-09-03T04:09:21.327Z,11.50
2017-09-03T04:11:48.958Z,11.60
2017-09-03T04:14:16.552Z,11.70
2017-09-03T04:16:44.159Z,11.50
2017-09-03T04:19:11.787Z,11.60
2017-09-03T04:21:39.413Z,11.50
2017-09-03T04:24:07.020Z,11.30
2017-09-03T04:26:34.652Z,11.30
2017-09-03T04:29:02.758Z,11.40
2017-09-03T04:31:31.140Z,11.50
2017-09-03T04:33:58.754Z,11.40
2017-09-03T04:36:26.380Z,11.40
2017-09-03T04:38:53.980Z,11.40
2017-09-03T04:41:21.614Z,11.40
2017-09-03T04:43:50.421Z,11.40
2017-09-03T04:46:18.008Z,11.40
2017-09-03T04:48:45.624Z,11.40
2017-09-03T04:51:13.220Z,11.30
2017-09-03T04:53:40.852Z,11.30
2017-09-03T04:56:08.458Z,11.20
2017-09-03T04:58:36.071Z,11.10
2017-09-03T05:01:03.668Z,11.00
2017-09-03T05:03:31.355Z,10.90
2017-09-03T05:05:58.939Z,11.00
2017-09-03T05:08:26.578Z,11.00
2017-09-03T05:10:55.969Z,11.00
2017-09-03T05:13:23.595Z,11.00
2017-09-03T05:15:51.187Z,11.20
2017-09-03T05:18:18.792Z,11.20
2017-09-03T05:20:47.181Z,11.10
2017-09-03T05:23:14.801Z,11.10
2017-09-03T05:25:43.159Z,11.20
2017-09-03T05:28:10.840Z,11.10
2017-09-03T05:30:38.444Z,11.20
2017-09-03T05:33:06.079Z,11.10
2017-09-03T05:35:33.676Z,11.10
2017-09-03T05:38:01.280Z,11.10
2017-09-03T05:40:30.207Z,11.10
2017-09-03T05:42:57.816Z,11.10
2017-09-03T05:45:26.112Z,11.10
2017-09-03T05:47:53.757Z,11.10
2017-09-03T05:50:22.459Z,11.10
2017-09-03T05:52:50.828Z,11.10
2017-09-03T05:55:18.489Z,11.10
2017-09-03T05:57:46.894Z,11.40
2017-09-03T06:00:15.286Z,11.50
2017-09-03T06:02:42.871Z,11.50
2017-09-03T06:05:10.488Z,11.50
2017-09-03T06:07:38.078Z,11.40
2017-09-03T06:10:05.694Z,11.40
2017-09-03T06:12:33.301Z,11.40
2017-09-03T06:15:00.937Z,11.50
2017-09-03T06:17:28.527Z,11.50
2017-09-03T06:19:56.144Z,11.50
2017-09-03T06:22:24.529Z,11.50
2017-09-03T06:24:52.156Z,11.40
2017-09-03T06:27:20.866Z,11.40
2017-09-03T06:29:48.467Z,11.40
2017-09-03T06:32:16.059Z,11.50
2017-09-03T06:34:43.685Z,11.50
2017-09-03T06:37:11.293Z,11.40
2017-09-03T06:39:39.811Z,11.40
2017-09-03T06:42:07.424Z,11.50
2017-09-03T06:44:35.312Z,11.50
2017-09-03T06:47:03.808Z,11.50
2017-09-03T06:49:31.423Z,11.50
2017-09-03T06:51:59.028Z,11.60
2017-09-03T06:54:26.648Z,11.70
2017-09-03T06:56:54.240Z,11.70
2017-09-03T06:59:21.960Z,11.80
2017-09-03T07:01:49.654Z,11.80
2017-09-03T07:04:17.243Z,11.80
2017-09-03T07:06:44.872Z,11.80
2017-09-03T07:09:12.472Z,11.90
2017-09-03T07:11:40.632Z,12.00
2017-09-03T07:14:08.222Z,12.00
2017-09-03T07:16:35.851Z,12.10
2017-09-03T07:19:03.466Z,12.10
2017-09-03T07:21:31.107Z,12.10
2017-09-03T07:23:58.709Z,12.20
2017-09-03T07:26:26.428Z,12.20
2017-09-03T07:28:54.129Z,12.20
2017-09-03T07:31:22.559Z,12.30
2017-09-03T07:33:50.156Z,12.30
2017-09-03T07:36:17.801Z,12.30
2017-09-03T07:38:45.399Z,12.40
2017-09-03T07:41:12.992Z,12.60
2017-09-03T07:43:41.367Z,12.90
2017-09-03T07:46:09.723Z,13.00
2017-09-03T07:48:37.353Z,13.00
2017-09-03T07:51:04.955Z,13.10
2017-09-03T07:53:32.568Z,13.20
2017-09-03T07:56:00.286Z,13.20
2017-09-03T07:58:27.930Z,13.20
2017-09-03T08:00:55.545Z,13.20
2017-09-03T08:03:23.171Z,13.40
2017-09-03T08:05:50.770Z,13.60
2017-09-03T08:08:20.641Z,13.80
2017-09-03T08:10:49.037Z,14.40
2017-09-03T08:13:16.681Z,14.30
2017-09-03T08:15:44.283Z,14.40
2017-09-03T08:18:11.908Z,14.50
2017-09-03T08:20:39.511Z,14.90
2017-09-03T08:23:07.133Z,15.30
2017-09-03T08:25:34.763Z,15.60
2017-09-03T08:28:02.355Z,15.70
2017-09-03T08:30:29.992Z,15.90
2017-09-03T08:32:57.614Z,15.80
2017-09-03T08:35:25.267Z,15.90
2017-09-03T08:37:52.871Z,16.00
2017-09-03T08:40:20.496Z,16.20
2017-09-03T08:42:48.096Z,16.50
2017-09-03T08:45:15.735Z,16.60
2017-09-03T08:47:43.319Z,16.80
2017-09-03T08:50:10.947Z,16.80
2017-09-03T08:52:38.544Z,16.80
2017-09-03T08:55:06.531Z,16.80
2017-09-03T08:57:34.128Z,16.80
2017-09-03T09:00:01.746Z,16.80
2017-09-03T09:02:29.340Z,16.80
2017-09-03T09:04:56.956Z,16.80
2017-09-03T09:07:24.556Z,16.80
2017-09-03T09:09:52.174Z,16.80
2017-09-03T09:12:19.777Z,16.80
2017-09-03T09:14:47.437Z,16.80
2017-09-03T09:17:15.059Z,16.90
2017-09-03T09:19:42.661Z,16.90
2017-09-03T09:22:10.279Z,17.00
2017-09-03T09:24:37.888Z,17.00
2017-09-03T09:27:05.519Z,17.10
2017-09-03T09:29:34.021Z,17.20
2017-09-03T09:32:01.639Z,17.30
2017-09-03T09:34:29.257Z,17.30
2017-09-03T09:36:56.868Z,17.40
2017-09-03T09:39:25.255Z,17.40
2017-09-03T09:41:52.872Z,17.40
2017-09-03T09:44:21.932Z,17.50
2017-09-03T09:46:49.570Z,17.70
2017-09-03T09:49:17.169Z,17.80
2017-09-03T09:51:44.814Z,18.10
2017-09-03T09:54:12.436Z,18.10
2017-09-03T09:56:40.079Z,18.40
2017-09-03T09:59:08.466Z,18.60
2017-09-03T10:01:36.103Z,18.60
2017-09-03T10:04:03.714Z,18.60
2017-09-03T10:06:31.336Z,18.50
2017-09-03T10:08:58.927Z,18.60
2017-09-03T10:11:26.530Z,18.70
2017-09-03T10:13:54.161Z,18.80
2017-09-03T10:16:21.770Z,19.00
2017-09-03T10:18:49.393Z,19.10
2017-09-03T10:21:17.009Z,19.30
2017-09-03T10:23:44.631Z,19.60
2017-09-03T10:26:13.210Z,19.60
2017-09-03T10:28:40.961Z,19.70
2017-09-03T10:31:08.571Z,19.40
2017-09-03T10:33:36.639Z,19.10
2017-09-03T10:36:04.244Z,19.20
2017-09-03T10:38:31.864Z,19.20
2017-09-03T10:40:59.476Z,19.40
2017-09-03T10:43:27.111Z,19.40
2017-09-03T10:45:54.704Z,19.10
2017-09-03T10:48:22.317Z,19.20
2017-09-03T10:50:51.023Z,19.10
2017-09-03T10:53:18.648Z,19.20
2017-09-03T10:55:46.258Z,19.30
2017-09-03T10:58:13.888Z,19.30
2017-09-03T11:00:44.493Z,19.20
2017-09-03T11:03:12.130Z,19.20
2017-09-03T11:05:39.733Z,19.30
2017-09-03T11:08:07.349Z,19.40
2017-09-03T11:10:34.973Z,19.30
2017-09-03T11:13:02.570Z,19.30
2017-09-03T11:15:30.196Z,19.60
2017-09-03T11:17:57.811Z,19.60
2017-09-03T11:20:27.034Z,19.60
2017-09-03T11:22:54.837Z,19.60
2017-09-03T11:25:22.474Z,19.50
2017-09-03T11:27:50.068Z,19.50
2017-09-03T11:30:17.724Z,19.40
2017-09-03T11:32:45.329Z,19.20
2017-09-03T11:35:12.984Z,19.20
2017-09-03T11:37:41.338Z,19.20
2017-09-03T11:40:08.985Z,19.20
2017-09-03T11:42:37.393Z,19.20
2017-09-03T11:45:05.794Z,19.10
2017-09-03T11:47:33.492Z,19.10
2017-09-03T11:50:01.110Z,19.10
2017-09-03T11:52:28.726Z,19.00
2017-09-03T11:54:56.345Z,19.00
2017-09-03T11:57:23.953Z,19.00
2017-09-03T11:59:52.343Z,19.00
2017-09-03T12:02:19.944Z,19.00
2017-09-03T12:04:47.536Z,19.00
2017-09-03T12:07:15.193Z,18.90
2017-09-03T12:09:42.804Z,18.90
2017-09-03T12:12:10.428Z,18.90
2017-09-03T12:14:38.025Z,18.90
2017-09-03T12:17:06.403Z,18.80
2017-09-03T12:19:34.013Z,18.80
2017-09-03T12:22:01.638Z,18.70
2017-09-03T12:24:29.278Z,18.70
2017-09-03T12:26:56.899Z,18.60
2017-09-03T12:29:24.505Z,18.60
2017-09-03T12:31:52.132Z,18.60
2017-09-03T12:34:21.643Z,18.60
2017-09-03T12:36:50.027Z,18.60
2017-09-03T12:39:17.633Z,18.60
2017-09-03T12:41:45.265Z,18.60
2017-09-03T12:44:14.110Z,18.70
2017-09-03T12:46:41.779Z,18.60
2017-09-03T12:49:09.368Z,18.60
2017-09-03T12:51:36.975Z,18.70
2017-09-03T12:54:04.636Z,18.80
2017-09-03T12:56:32.261Z,19.00
2017-09-03T12:58:59.876Z,19.20
2017-09-03T13:01:27.470Z,19.10
2017-09-03T13:03:55.113Z,19.00
2017-09-03T13:06:23.478Z,18.70
2017-09-03T13:08:51.113Z,18.70
2017-09-03T13:11:18.703Z,18.70
2017-09-03T13:13:46.336Z,18.80
2017-09-03T13:16:13.939Z,18.80
2017-09-03T13:18:41.599Z,18.90
2017-09-03T13:21:09.204Z,18.90
2017-09-03T13:23:36.836Z,19.00
2017-09-03T13:26:05.206Z,19.00
2017-09-03T13:28:33.594Z,19.00
2017-09-03T13:31:01.180Z,19.00
2017-09-03T13:33:29.157Z,18.90
2017-09-03T13:35:56.760Z,18.90
2017-09-03T13:38:24.441Z,18.90
2017-09-03T13:40:52.031Z,18.90
2017-09-03T13:43:19.648Z,18.90
2017-09-03T13:45:48.114Z,19.00
2017-09-03T13:48:15.732Z,19.00
2017-09-03T13:50:43.373Z,19.00
2017-09-03T13:53:10.988Z,19.00
2017-09-03T13:55:38.583Z,18.90
2017-09-03T13:58:06.968Z,18.80
2017-09-03T14:00:35.334Z,18.70
2017-09-03T14:03:02.956Z,18.70
2017-09-03T14:05:30.544Z,18.70
2017-09-03T14:07:58.166Z,18.60
2017-09-03T14:10:25.769Z,18.60
2017-09-03T14:12:53.391Z,18.60
2017-09-03T14:15:20.984Z,18.60
2017-09-03T14:17:48.571Z,18.60
2017-09-03T14:20:16.961Z,18.50
2017-09-03T14:22:44.560Z,18.50
2017-09-03T14:25:12.185Z,18.50
2017-09-03T14:27:39.781Z,18.60
2017-09-03T14:30:07.392Z,18.60
2017-09-03T14:32:35.744Z,18.50
2017-09-03T14:35:03.412Z,18.50
2017-09-03T14:37:30.999Z,18.50
2017-09-03T14:39:59.381Z,18.40
2017-09-03T14:42:27.005Z,18.40
2017-09-03T14:44:54.617Z,18.40
2017-09-03T14:47:22.225Z,18.30
2017-09-03T14:49:49.828Z,18.30
2017-09-03T14:52:17.460Z,18.20
2017-09-03T14:54:45.061Z,18.20
2017-09-03T14:57:12.676Z,18.20
2017-09-03T14:59:40.313Z,18.10
2017-09-03T15:02:08.706Z,18.00
2017-09-03T15:04:37.068Z,18.10
2017-09-03T15:07:04.700Z,18.00
2017-09-03T15:09:32.280Z,18.00
2017-09-03T15:11:59.901Z,18.10
2017-09-03T15:14:28.248Z,18.20
2017-09-03T15:16:55.860Z,18.20
2017-09-03T15:19:24.308Z,18.20
2017-09-03T15:21:53.451Z,18.20
2017-09-03T15:24:21.092Z,18.20
2017-09-03T15:26:48.733Z,18.20
2017-09-03T15:29:16.771Z,18.20
2017-09-03T15:31:44.515Z,18.10
2017-09-03T15:34:13.157Z,18.10
2017-09-03T15:36:41.512Z,18.20
2017-09-03T15:39:09.119Z,18.20
2017-09-03T15:41:36.703Z,18.20
2017-09-03T15:44:04.454Z,18.20
2017-09-03T15:46:32.332Z,18.30
2017-09-03T15:49:00.185Z,18.30
2017-09-03T15:51:27.791Z,18.40
2017-09-03T15:53:55.403Z,18.40
2017-09-03T15:56:23.022Z,18.40
2017-09-03T15:58:50.664Z,18.40
2017-09-03T16:01:18.253Z,18.40
2017-09-03T16:03:45.904Z,18.50
2017-09-03T16:06:13.499Z,18.50
2017-09-03T16:08:41.118Z,18.50
2017-09-03T16:11:08.715Z,18.50
2017-09-03T16:13:36.335Z,18.40
2017-09-03T16:16:04.097Z,18.20
2017-09-03T16:18:32.525Z,18.10
2017-09-03T16:21:00.110Z,18.10
2017-09-03T16:23:27.741Z,18.00
2017-09-03T16:25:56.100Z,18.00
2017-09-03T16:28:23.704Z,17.90
2017-09-03T16:30:51.353Z,18.00
2017-09-03T16:33:18.969Z,17.90
2017-09-03T16:35:46.556Z,17.80
2017-09-03T16:38:14.179Z,17.80
2017-09-03T16:40:41.788Z,17.80
2017-09-03T16:43:09.411Z,17.90
2017-09-03T16:45:37.029Z,17.80
2017-09-03T16:48:04.644Z,17.80
2017-09-03T16:50:32.543Z,17.60
2017-09-03T16:53:00.187Z,17.60
2017-09-03T16:55:28.559Z,17.70
2017-09-03T16:57:56.628Z,17.70
2017-09-03T17:00:24.266Z,17.60
2017-09-03T17:02:51.859Z,17.60
2017-09-03T17:05:19.512Z,17.60
2017-09-03T17:07:47.095Z,17.50
2017-09-03T17:10:14.717Z,17.40
2017-09-03T17:12:42.307Z,17.20
2017-09-03T17:15:09.931Z,17.20
2017-09-03T17:17:37.536Z,17.20
2017-09-03T17:20:05.165Z,17.10
2017-09-03T17:22:33.527Z,16.90
2017-09-03T17:25:01.139Z,16.80
2017-09-03T17:27:28.752Z,16.70
2017-09-03T17:30:16.564Z,16.70
2017-09-03T17:32:44.344Z,16.60
2017-09-03T17:35:13.370Z,16.70
2017-09-03T17:37:44.339Z,16.80
2017-09-03T17:40:14.990Z,16.80
2017-09-03T17:42:47.600Z,16.80
2017-09-03T17:45:15.224Z,16.70
2017-09-03T17:47:42.814Z,16.60
2017-09-03T17:50:10.748Z,16.60
2017-09-03T17:52:38.423Z,16.60
2017-09-03T17:55:06.019Z,16.50
2017-09-03T17:57:33.645Z,16.50
2017-09-03T18:00:01.246Z,16.50
2017-09-03T18:02:29.625Z,16.00
2017-09-03T18:04:57.590Z,16.00
2017-09-03T18:07:25.204Z,15.80
2017-09-03T18:09:52.804Z,15.60
2017-09-03T18:12:23.984Z,15.60
2017-09-03T18:14:52.300Z,15.50
2017-09-03T18:17:19.961Z,15.30
2017-09-03T18:19:47.547Z,15.20
2017-09-03T18:22:15.175Z,15.20
2017-09-03T18:24:42.766Z,15.20
2017-09-03T18:27:10.390Z,15.30
2017-09-03T18:29:43.503Z,15.30
2017-09-03T18:32:11.415Z,15.30
2017-09-03T18:34:39.007Z,15.40
2017-09-03T18:37:10.216Z,15.40
2017-09-03T18:39:38.297Z,15.30
2017-09-03T18:42:16.942Z,15.30
2017-09-03T18:44:44.520Z,15.20
2017-09-03T18:47:12.128Z,15.20
2017-09-03T18:49:44.773Z,15.10
2017-09-03T18:52:27.285Z,14.90
2017-09-03T18:54:54.882Z,14.80
2017-09-03T19:00:33.157Z,14.80
2017-09-03T19:03:04.714Z,14.80
2017-09-03T19:05:33.816Z,14.90
2017-09-03T19:08:01.432Z,14.80
2017-09-03T19:10:29.059Z,14.80
2017-09-03T19:12:56.687Z,14.80
2017-09-03T19:15:24.277Z,14.80
2017-09-03T19:17:52.973Z,14.80
2017-09-03T19:20:21.354Z,14.70
2017-09-03T19:22:48.966Z,14.70
2017-09-03T19:25:16.573Z,14.70
2017-09-03T19:27:44.190Z,14.60
2017-09-03T19:30:11.793Z,14.50
2017-09-03T19:32:40.123Z,14.60
2017-09-03T19:35:07.834Z,14.60
2017-09-03T19:37:37.137Z,14.60
2017-09-03T19:40:04.727Z,14.50
2017-09-03T19:42:32.410Z,14.50
2017-09-03T19:44:59.999Z,14.20
2017-09-03T19:47:27.675Z,13.90
2017-09-03T19:49:56.017Z,13.90
2017-09-03T19:52:23.617Z,13.90
2017-09-03T19:54:51.238Z,13.90
2017-09-03T19:57:19.768Z,13.90
2017-09-03T19:59:48.158Z,13.70
2017-09-03T20:02:15.763Z,13.70
2017-09-03T20:04:43.383Z,13.70
2017-09-03T20:07:10.975Z,13.70
2017-09-03T20:09:38.603Z,13.70
2017-09-03T20:12:06.191Z,13.80
2017-09-03T20:14:33.812Z,13.90
2017-09-03T20:17:01.409Z,13.90
2017-09-03T20:19:29.068Z,13.80
2017-09-03T20:21:56.679Z,13.70
2017-09-03T20:24:24.295Z,13.60
2017-09-03T20:26:51.902Z,13.50
2017-09-03T20:29:20.287Z,13.60
2017-09-03T20:31:48.663Z,13.60
2017-09-03T20:34:16.292Z,13.60
2017-09-03T20:36:43.881Z,13.50
2017-09-03T20:39:11.532Z,13.50
2017-09-03T20:41:39.173Z,13.40
2017-09-03T20:44:06.764Z,13.40
2017-09-03T20:46:35.167Z,13.50
2017-09-03T20:49:02.748Z,13.50
2017-09-03T20:51:30.371Z,13.50
2017-09-03T20:53:58.748Z,13.40
2017-09-03T20:56:27.128Z,13.40
2017-09-03T20:58:55.184Z,13.40
2017-09-03T21:01:22.805Z,13.30
2017-09-03T21:03:50.412Z,13.30
2017-09-03T21:06:18.019Z,13.10
2017-09-03T21:08:45.624Z,12.90
2017-09-03T21:11:13.244Z,12.80
2017-09-03T21:13:41.603Z,13.00
2017-09-03T21:16:09.219Z,12.90
2017-09-03T21:18:36.836Z,13.10
2017-09-03T21:21:04.427Z,13.10
2017-09-03T21:23:32.079Z,13.00
2017-09-03T21:25:59.672Z,13.00
2017-09-03T21:28:27.302Z,12.90
2017-09-03T21:30:54.889Z,12.90
2017-09-03T21:33:22.533Z,12.90
2017-09-03T21:35:50.150Z,13.00
2017-09-03T21:38:17.777Z,13.00
2017-09-03T21:40:45.415Z,13.00
2017-09-03T21:43:13.035Z,13.00
2017-09-03T21:45:40.654Z,13.00
2017-09-03T21:48:08.267Z,13.10
2017-09-03T21:50:35.872Z,13.10
2017-09-03T21:53:03.488Z,13.10
2017-09-03T21:55:31.095Z,13.00
2017-09-03T21:57:58.703Z,12.80
2017-09-03T22:00:26.315Z,12.90
2017-09-03T22:02:53.947Z,12.90
2017-09-03T22:05:21.546Z,12.80
2017-09-03T22:07:49.155Z,12.80
2017-09-03T22:10:16.855Z,12.80
2017-09-03T22:12:44.462Z,12.80
2017-09-03T22:15:12.075Z,12.80
2017-09-03T22:17:39.667Z,12.90
2017-09-03T22:20:08.048Z,12.90
2017-09-03T22:22:35.640Z,12.90
2017-09-03T22:25:04.041Z,12.80
2017-09-03T22:27:31.624Z,12.80
2017-09-03T22:29:59.236Z,12.80
2017-09-03T22:32:26.844Z,12.70
2017-09-03T22:34:54.486Z,12.70
2017-09-03T22:37:22.085Z,12.60
2017-09-03T22:39:49.703Z,12.60
2017-09-03T22:42:17.295Z,12.50
2017-09-03T22:44:44.925Z,12.50
2017-09-03T22:47:12.524Z,12.40
2017-09-03T22:49:40.144Z,12.50
2017-09-03T22:52:07.736Z,12.50
2017-09-03T22:54:35.371Z,12.40
2017-09-03T22:57:02.976Z,12.50
2017-09-03T22:59:31.364Z,12.20
2017-09-03T23:01:59.726Z,12.20
2017-09-03T23:04:27.363Z,12.20
2017-09-03T23:06:54.949Z,12.20
2017-09-03T23:09:22.540Z,12.20
2017-09-03T23:11:50.155Z,12.30
2017-09-03T23:14:17.751Z,12.20
2017-09-03T23:16:45.372Z,12.10
2017-09-03T23:19:12.966Z,12.20
2017-09-03T23:21:41.343Z,12.30
2017-09-03T23:24:09.707Z,12.20
2017-09-03T23:26:37.328Z,12.20
2017-09-03T23:29:04.927Z,12.10
2017-09-03T23:31:32.549Z,12.10
2017-09-03T23:34:00.154Z,12.10
2017-09-03T23:36:27.773Z,12.20
2017-09-03T23:38:55.405Z,12.20
2017-09-03T23:41:23.020Z,12.20
2017-09-03T23:43:50.620Z,12.20
2017-09-03T23:46:18.232Z,12.10
2017-09-03T23:48:45.845Z,12.10
2017-09-03T23:51:13.470Z,12.00
2017-09-03T23:53:41.051Z,12.00
2017-09-03T23:56:08.682Z,12.00
2017-09-03T23:58:36.274Z,11.70
